Time;durP1;ratioP1;P1;durP2;ratioP2;P2;SDS_P1;SDS_P2;PMS_P1;PMS_P2;Temp;Humidity;BMP_temperature;BMP_pressure;BME280_temperature;BME280_humidity;BME280_pressure;Samples;Min_cycle;Max_cycle;Signal;HPM_P1;HPM_P2
2022/06/09 00:01:43;;;;;;;;;1.00;1.00;;;;;15.09;64.44;100538.78;5034504;28;46775;-81
2022/06/09 00:04:21;;;;;;;;;0.00;0.00;;;;;15.07;64.66;100554.81;4998295;28;45440;-82
2022/06/09 00:06:51;;;;;;;;;1.00;1.00;;;;;14.98;65.01;100539.19;5015826;28;45332;-81
2022/06/09 00:09:20;;;;;;;;;3.25;1.25;;;;;14.93;64.81;100539.38;5018959;28;45513;-80
2022/06/09 00:11:49;;;;;;;;;3.00;0.00;;;;;14.90;64.97;100549.28;5017604;28;45351;-81
2022/06/09 00:14:16;;;;;;;;;0.25;0.25;;;;;14.92;65.28;100555.41;5003948;28;45439;-79
2022/06/09 00:16:43;;;;;;;;;0.75;0.00;;;;;14.87;65.11;100555.56;4998909;28;45476;-80
2022/06/09 00:19:08;;;;;;;;;2.00;0.00;;;;;14.84;65.39;100554.84;5000169;28;45348;-80
2022/06/09 00:21:35;;;;;;;;;0.00;0.00;;;;;14.82;65.21;100562.00;5001396;28;45368;-80
2022/06/09 00:24:01;;;;;;;;;1.25;1.00;;;;;14.70;65.55;100548.25;5022102;28;45436;-81
2022/06/09 00:26:27;;;;;;;;;1.00;1.00;;;;;14.70;66.28;100556.22;5022413;28;45333;-80
2022/06/09 00:28:53;;;;;;;;;1.25;1.00;;;;;14.71;65.38;100563.28;5018861;28;45570;-80
2022/06/09 00:31:18;;;;;;;;;1.00;1.00;;;;;14.70;66.12;100574.84;5019090;28;45324;-80
2022/06/09 00:33:43;;;;;;;;;1.25;1.25;;;;;14.65;66.04;100576.81;5014885;28;47560;-80
2022/06/09 00:36:09;;;;;;;;;0.50;0.25;;;;;14.64;66.15;100579.53;5018314;28;45569;-81
2022/06/09 00:38:34;;;;;;;;;2.00;0.00;;;;;14.61;66.09;100584.97;5018401;28;45805;-81
2022/06/09 00:41:00;;;;;;;;;0.00;0.00;;;;;14.54;66.82;100578.94;5018067;28;46454;-81
2022/06/09 00:43:26;;;;;;;;;1.25;1.00;;;;;14.50;66.25;100577.31;5013593;28;46013;-80
2022/06/09 00:46:06;;;;;;;;;0.00;0.00;;;;;14.54;66.46;100590.44;4998976;28;45337;-81
2022/06/09 00:48:49;;;;;;;;;0.00;0.00;;;;;14.52;66.29;100597.63;5001859;28;45333;-79
2022/06/09 00:51:22;;;;;;;;;0.50;0.50;;;;;14.50;66.27;100593.28;5009763;28;45514;-80
2022/06/09 00:53:51;;;;;;;;;1.00;1.00;;;;;14.37;67.15;100575.09;5010431;28;45558;-79
2022/06/09 00:56:17;;;;;;;;;3.50;1.00;;;;;14.44;67.02;100583.75;4997580;28;45534;-80
2022/06/09 00:58:46;;;;;;;;;1.00;1.00;;;;;14.38;66.69;100590.16;4998124;28;45694;-81
2022/06/09 01:01:15;;;;;;;;;0.00;0.00;;;;;14.37;67.51;100591.06;4997222;28;45400;-81
2022/06/09 01:03:47;;;;;;;;;0.50;0.00;;;;;14.35;67.63;100584.94;5002942;28;45394;-81
2022/06/09 01:06:18;;;;;;;;;2.00;1.00;;;;;14.32;67.45;100598.34;4999256;28;45479;-81
2022/06/09 01:09:07;;;;;;;;;0.75;0.00;;;;;14.30;67.86;100597.53;4998378;28;45447;-81
2022/06/09 01:11:33;;;;;;;;;1.00;0.00;;;;;14.25;67.72;100587.97;4992716;28;47014;-80
2022/06/09 01:13:59;;;;;;;;;0.00;0.00;;;;;14.26;67.61;100608.34;5035919;28;45336;-81
2022/06/09 01:16:50;;;;;;;;;5.00;0.25;;;;;14.21;68.15;100589.84;5041240;28;45241;-80
2022/06/09 01:19:43;;;;;;;;;0.25;0.25;;;;;14.18;68.51;100603.25;5043170;28;45375;-80
2022/06/09 01:22:36;;;;;;;;;2.75;1.00;;;;;14.20;68.58;100606.75;5027437;28;45485;-80
2022/06/09 01:25:14;;;;;;;;;2.50;1.25;;;;;14.16;68.51;100611.28;5027612;28;45380;-80
2022/06/09 01:27:54;;;;;;;;;1.00;0.00;;;;;14.15;68.60;100608.66;5040043;28;45409;-80
2022/06/09 01:30:51;;;;;;;;;2.50;1.00;;;;;14.14;68.64;100604.31;5038060;28;45390;-81
2022/06/09 01:33:29;;;;;;;;;1.00;1.00;;;;;14.07;68.65;100610.75;5021816;28;45497;-80
2022/06/09 01:36:12;;;;;;;;;0.00;0.00;;;;;13.95;68.87;100590.75;5036547;28;45477;-80
2022/06/09 01:38:50;;;;;;;;;0.00;0.00;;;;;14.02;68.96;100618.88;5037985;28;45313;-81
2022/06/09 01:41:16;;;;;;;;;5.00;2.00;;;;;14.01;69.42;100625.97;5038580;28;45430;-80
2022/06/09 01:43:43;;;;;;;;;1.25;0.25;;;;;13.95;69.40;100615.56;5013869;28;46256;-80
2022/06/09 01:46:19;;;;;;;;;1.00;1.00;;;;;13.92;69.46;100607.66;5018304;28;45524;-80
2022/06/09 01:48:44;;;;;;;;;3.00;0.25;;;;;13.88;70.01;100615.78;5022821;28;45330;-80
2022/06/09 01:51:14;;;;;;;;;3.25;1.00;;;;;13.78;70.06;100605.47;5020567;28;45400;-80
2022/06/09 01:53:47;;;;;;;;;1.50;1.50;;;;;13.83;70.37;100622.13;5003697;28;46539;-80
2022/06/09 01:56:20;;;;;;;;;4.25;0.75;;;;;13.85;69.57;100628.25;5037189;28;45446;-81
2022/06/09 01:58:52;;;;;;;;;1.00;0.00;;;;;13.81;69.97;100613.34;5037104;28;45399;-80
2022/06/09 02:01:23;;;;;;;;;3.25;1.75;;;;;13.79;70.45;100623.16;5020990;28;45387;-81
2022/06/09 02:03:52;;;;;;;;;0.75;0.00;;;;;13.75;70.23;100620.66;4997961;28;45438;-80
2022/06/09 02:06:20;;;;;;;;;1.50;0.00;;;;;13.77;69.86;100635.63;5017345;28;45412;-80
2022/06/09 02:08:47;;;;;;;;;3.00;0.00;;;;;13.79;70.40;100648.84;5016186;28;45668;-80
2022/06/09 02:11:13;;;;;;;;;2.50;1.00;;;;;13.77;69.86;100637.38;5000677;28;45367;-81
2022/06/09 02:13:47;;;;;;;;;1.00;1.00;;;;;13.72;70.87;100642.00;5013635;28;45479;-82
2022/06/09 02:16:17;;;;;;;;;1.50;1.50;;;;;13.74;70.47;100634.84;5020281;28;45387;-80
2022/06/09 02:18:45;;;;;;;;;1.00;0.25;;;;;13.76;70.35;100655.13;5023373;28;45439;-81
2022/06/09 02:21:16;;;;;;;;;0.50;0.00;;;;;13.73;70.21;100646.41;5018090;28;45490;-81
2022/06/09 02:23:41;;;;;;;;;2.75;1.00;;;;;13.76;70.54;100655.13;5016680;28;45371;-81
2022/06/09 02:26:07;;;;;;;;;1.00;1.00;;;;;13.68;70.18;100642.09;5017614;28;45453;-80
2022/06/09 02:28:33;;;;;;;;;4.00;1.75;;;;;13.75;70.38;100652.50;5017679;28;45316;-80
2022/06/09 02:30:59;;;;;;;;;2.00;1.00;;;;;13.68;70.16;100634.13;5003537;28;45365;-81
2022/06/09 02:33:25;;;;;;;;;3.50;2.00;;;;;13.70;70.49;100639.38;5011738;28;46124;-80
2022/06/09 02:35:51;;;;;;;;;1.00;1.00;;;;;13.70;70.40;100643.84;5017543;28;45345;-81
2022/06/09 02:38:18;;;;;;;;;1.75;0.00;;;;;13.65;71.01;100642.19;4997385;28;45380;-80
2022/06/09 02:40:44;;;;;;;;;1.25;1.25;;;;;13.61;71.15;100640.53;5008049;28;45546;-81
2022/06/09 02:43:09;;;;;;;;;0.50;0.50;;;;;13.60;71.01;100649.41;5013814;28;46688;-80
2022/06/09 02:45:35;;;;;;;;;1.75;1.75;;;;;13.58;71.20;100645.94;5023911;28;45415;-81
2022/06/09 02:48:01;;;;;;;;;1.25;1.25;;;;;13.57;71.07;100643.34;5018531;28;45339;-79
2022/06/09 02:50:27;;;;;;;;;1.25;1.25;;;;;13.54;71.05;100657.56;5017417;28;45519;-80
2022/06/09 02:52:52;;;;;;;;;5.75;1.00;;;;;13.55;71.68;100655.81;5014219;28;45935;-81
2022/06/09 02:55:18;;;;;;;;;0.75;0.00;;;;;13.53;71.27;100655.84;5028356;28;45565;-80
2022/06/09 02:57:43;;;;;;;;;1.00;1.00;;;;;13.52;71.14;100656.75;5035811;28;45547;-81
2022/06/09 03:00:14;;;;;;;;;1.00;1.00;;;;;13.52;71.74;100656.75;5027735;28;45510;-80
2022/06/09 03:02:40;;;;;;;;;2.00;1.00;;;;;13.47;71.45;100648.94;5001561;28;46118;-80
2022/06/09 03:05:06;;;;;;;;;1.00;1.00;;;;;13.49;71.31;100651.56;5014651;28;46019;-79
2022/06/09 03:07:31;;;;;;;;;3.00;1.50;;;;;13.47;71.51;100651.59;5015236;28;45573;-80
2022/06/09 03:09:57;;;;;;;;;0.00;0.00;;;;;13.45;71.89;100640.16;5006535;28;45553;-80
2022/06/09 03:12:22;;;;;;;;;0.50;0.00;;;;;13.47;71.73;100661.34;4998325;28;45565;-80
2022/06/09 03:14:48;;;;;;;;;0.00;0.00;;;;;13.48;71.76;100657.75;5000448;28;45372;-81
2022/06/09 03:17:13;;;;;;;;;2.00;0.75;;;;;13.44;71.65;100653.50;5003601;28;45612;-80
2022/06/09 03:19:39;;;;;;;;;4.75;1.00;;;;;13.45;72.16;100656.09;4997038;28;46818;-82
2022/06/09 03:22:04;;;;;;;;;1.00;1.00;;;;;13.44;71.58;100648.19;4996678;28;46472;-81
2022/06/09 03:24:30;;;;;;;;;2.50;1.00;;;;;13.41;71.82;100648.28;4995535;28;45499;-80
2022/06/09 03:26:56;;;;;;;;;1.25;1.25;;;;;13.40;72.04;100643.88;4995885;28;45473;-82
2022/06/09 03:29:22;;;;;;;;;2.00;1.75;;;;;13.40;72.37;100643.88;5001807;28;45430;-81
2022/06/09 03:31:48;;;;;;;;;0.50;0.50;;;;;13.40;72.21;100659.78;4993659;28;45940;-81
2022/06/09 03:34:14;;;;;;;;;1.00;1.00;;;;;13.36;72.13;100660.78;4995795;28;45395;-83
2022/06/09 03:36:43;;;;;;;;;0.75;0.75;;;;;13.36;72.52;100659.03;4996249;28;45655;-80
2022/06/09 03:39:09;;;;;;;;;4.00;1.50;;;;;13.33;72.53;100659.09;5002041;28;45598;-81
2022/06/09 03:41:34;;;;;;;;;0.00;0.00;;;;;13.32;72.51;100670.63;5019385;28;46822;-81
2022/06/09 03:43:59;;;;;;;;;4.50;0.50;;;;;13.25;72.98;100674.34;5027162;28;45301;-80
2022/06/09 03:46:25;;;;;;;;;2.00;1.00;;;;;13.28;72.84;100677.78;5028399;28;45501;-80
2022/06/09 03:48:50;;;;;;;;;5.75;5.75;;;;;13.22;72.89;100677.97;5016472;28;51623;-80
2022/06/09 03:51:15;;;;;;;;;1.00;1.00;;;;;13.27;73.23;100688.44;5005305;28;46504;-81
2022/06/09 03:53:41;;;;;;;;;1.50;0.00;;;;;13.25;72.87;100682.31;5014183;28;45454;-81
2022/06/09 03:56:13;;;;;;;;;1.00;0.25;;;;;13.28;73.01;100696.34;5015801;28;45319;-80
2022/06/09 03:58:38;;;;;;;;;1.00;1.00;;;;;13.29;72.95;100697.25;5014290;28;45338;-81
2022/06/09 04:01:05;;;;;;;;;0.00;0.00;;;;;13.28;73.19;100703.47;5009045;28;46631;-81
2022/06/09 04:03:30;;;;;;;;;3.50;2.00;;;;;13.24;73.22;100697.38;5035140;28;45300;-81
2022/06/09 04:05:56;;;;;;;;;0.00;0.00;;;;;13.28;73.57;100717.59;5036158;28;45635;-81
2022/06/09 04:08:22;;;;;;;;;0.50;0.50;;;;;13.30;72.86;100710.47;5036579;28;45391;-81
2022/06/09 04:10:48;;;;;;;;;2.50;1.75;;;;;13.33;72.79;100710.41;5004009;28;45325;-81
2022/06/09 04:13:15;;;;;;;;;2.00;2.00;;;;;13.41;72.58;100719.94;5000615;28;45418;-81
2022/06/09 04:15:41;;;;;;;;;4.25;0.25;;;;;13.46;72.74;100715.38;5001939;28;45395;-79
2022/06/09 04:18:06;;;;;;;;;2.50;1.00;;;;;13.54;72.12;100710.69;4995150;28;45565;-80
2022/06/09 04:20:32;;;;;;;;;3.00;1.25;;;;;13.74;71.85;100718.06;5011639;28;45454;-81
2022/06/09 04:22:57;;;;;;;;;1.00;1.00;;;;;13.96;71.16;100728.00;5015816;28;45494;-81
2022/06/09 04:25:23;;;;;;;;;4.25;0.25;;;;;14.20;70.03;100731.69;5015540;28;45466;-82
2022/06/09 04:27:49;;;;;;;;;1.75;1.25;;;;;14.48;69.36;100728.09;5015662;28;45428;-81
2022/06/09 04:30:15;;;;;;;;;0.50;0.25;;;;;14.85;67.96;100733.06;5013516;28;45440;-81
2022/06/09 04:32:40;;;;;;;;;1.75;1.75;;;;;15.18;67.09;100729.22;5013782;28;45386;-80
2022/06/09 04:35:06;;;;;;;;;1.00;0.00;;;;;15.55;65.64;100730.53;4999760;28;45414;-81
2022/06/09 04:40:16;;;;;;;;;2.50;0.50;;;;;16.22;63.40;100735.00;5008130;28;45714;-81
2022/06/09 04:42:41;;;;;;;;;1.00;1.00;;;;;16.65;61.93;100748.34;5035287;28;45493;-77
2022/06/09 04:45:07;;;;;;;;;2.00;2.00;;;;;17.02;60.67;100742.31;5039899;28;45414;-79
2022/06/09 04:47:33;;;;;;;;;1.00;1.00;;;;;17.44;59.58;100742.25;5035429;28;45292;-79
2022/06/09 04:49:58;;;;;;;;;2.50;0.50;;;;;17.84;58.64;100746.59;5010844;28;46219;-78
2022/06/09 04:52:24;;;;;;;;;3.75;0.00;;;;;18.20;57.27;100750.25;5015963;28;45486;-78
2022/06/09 04:54:50;;;;;;;;;1.75;0.75;;;;;18.54;56.21;100746.78;5037274;28;45394;-77
2022/06/09 04:57:15;;;;;;;;;4.00;1.00;;;;;18.90;54.79;100750.34;5037184;28;45422;-78
2022/06/09 04:59:41;;;;;;;;;2.00;1.00;;;;;19.18;54.25;100757.81;5020638;28;46479;-78
2022/06/09 05:02:06;;;;;;;;;1.00;0.00;;;;;19.57;53.15;100759.28;5008120;28;45803;-78
2022/06/09 05:04:31;;;;;;;;;2.25;1.75;;;;;19.91;52.07;100757.44;5017233;28;45427;-78
2022/06/09 05:06:57;;;;;;;;;3.25;1.75;;;;;20.36;51.06;100760.25;5017945;28;45487;-78
2022/06/09 05:09:22;;;;;;;;;2.25;2.25;;;;;20.71;49.62;100758.22;5016509;28;46230;-78
2022/06/09 05:11:47;;;;;;;;;1.75;1.00;;;;;21.04;49.08;100765.19;5014853;28;47105;-79
2022/06/09 05:14:13;;;;;;;;;2.00;1.50;;;;;21.44;48.16;100757.38;5022245;28;45507;-78
2022/06/09 05:16:38;;;;;;;;;3.00;0.50;;;;;21.62;47.66;100758.06;5016846;28;45570;-78
2022/06/09 05:19:04;;;;;;;;;0.50;0.00;;;;;22.09;46.74;100757.78;5016316;28;45467;-79
2022/06/09 05:21:29;;;;;;;;;2.25;2.25;;;;;22.58;45.86;100767.13;5008065;28;45530;-79
2022/06/09 05:23:54;;;;;;;;;3.00;2.00;;;;;23.04;45.34;100770.25;5016000;28;45450;-77
2022/06/09 05:26:21;;;;;;;;;2.00;1.00;;;;;23.49;44.08;100777.94;5016955;28;45621;-79
2022/06/09 05:28:46;;;;;;;;;2.00;1.00;;;;;23.84;43.01;100770.97;5017341;28;46176;-79
2022/06/09 05:31:12;;;;;;;;;2.50;1.50;;;;;23.87;42.72;100779.75;4997179;28;45506;-79
2022/06/09 05:33:37;;;;;;;;;0.00;0.00;;;;;24.09;42.06;100775.47;4997376;28;45542;-80
2022/06/09 05:36:03;;;;;;;;;1.00;1.00;;;;;24.44;41.17;100778.22;4998229;28;45498;-77
2022/06/09 05:46:44;;;;;;;;;1.75;1.25;;;;;25.33;39.40;100789.50;4999831;28;45513;-79
2022/06/09 05:49:09;;;;;;;;;1.50;1.00;;;;;25.56;38.56;100778.69;4997799;28;45407;-79
2022/06/09 05:51:35;;;;;;;;;3.00;2.00;;;;;25.65;39.20;100788.78;5014938;28;45453;-79
2022/06/09 05:54:01;;;;;;;;;0.50;0.50;;;;;25.85;38.33;100794.44;5018526;28;45493;-79
2022/06/09 05:56:27;;;;;;;;;1.25;1.25;;;;;26.15;37.54;100796.50;5017917;28;45467;-78
2022/06/09 05:58:52;;;;;;;;;2.25;1.00;;;;;26.45;37.39;100797.66;5014832;28;45458;-79
2022/06/09 06:01:17;;;;;;;;;0.50;0.50;;;;;26.88;36.27;100804.03;5013516;28;45494;-78
2022/06/09 06:03:43;;;;;;;;;1.00;1.00;;;;;27.47;36.11;100811.59;5016323;28;45679;-78
2022/06/09 06:08:53;;;;;;;;;2.00;1.00;;;;;27.48;34.76;100813.31;5017134;28;45380;-79
2022/06/09 06:11:20;;;;;;;;;2.75;1.00;;;;;26.67;35.97;100813.00;5007037;28;45511;-77
2022/06/09 06:13:46;;;;;;;;;1.50;1.50;;;;;25.91;36.99;100815.59;5002249;28;45469;-77
2022/06/09 06:16:12;;;;;;;;;2.00;1.00;;;;;25.09;38.55;100819.28;5015042;28;45335;-77
2022/06/09 06:18:38;;;;;;;;;2.75;1.00;;;;;24.43;39.98;100817.03;5015418;28;45833;-79
2022/06/09 06:21:03;;;;;;;;;3.00;2.00;;;;;24.08;41.05;100830.41;5005815;28;45399;-79
2022/06/09 06:23:29;;;;;;;;;0.00;0.00;;;;;23.42;41.76;100830.59;4997086;28;45449;-78
2022/06/09 06:25:56;;;;;;;;;1.00;1.00;;;;;22.77;42.71;100828.72;5011306;28;45370;-78
2022/06/09 06:28:22;;;;;;;;;0.50;0.00;;;;;22.33;43.91;100836.97;5020929;28;45417;-78
2022/06/09 06:30:48;;;;;;;;;2.75;1.00;;;;;22.68;43.97;100838.28;5024575;28;45761;-78
2022/06/09 06:33:13;;;;;;;;;5.25;1.25;;;;;22.70;44.22;100839.06;5016057;28;45351;-78
2022/06/09 06:35:39;;;;;;;;;2.00;0.25;;;;;23.18;43.16;100825.91;5019766;28;45320;-78
2022/06/09 06:38:04;;;;;;;;;2.00;1.00;;;;;24.19;41.32;100837.75;5016745;28;46185;-78
2022/06/09 06:40:30;;;;;;;;;0.25;0.25;;;;;24.88;40.35;100843.41;5017619;28;45444;-78
2022/06/09 06:42:55;;;;;;;;;0.00;0.00;;;;;25.48;38.51;100835.28;5013818;28;45401;-77
2022/06/09 06:45:22;;;;;;;;;0.50;0.50;;;;;25.23;38.99;100845.25;5018297;28;45591;-77
2022/06/09 06:47:48;;;;;;;;;6.00;3.75;;;;;25.24;38.75;100846.97;5022552;28;45419;-78
2022/06/09 06:50:14;;;;;;;;;6.50;2.25;;;;;25.46;38.82;100854.31;5010857;28;45368;-77
2022/06/09 06:52:40;;;;;;;;;2.25;1.25;;;;;25.36;38.57;100843.34;5028237;28;45529;-77
2022/06/09 06:55:08;;;;;;;;;1.75;1.00;;;;;25.39;38.85;100853.06;5012374;28;45381;-78
2022/06/09 06:57:34;;;;;;;;;1.25;1.00;;;;;25.49;38.39;100854.09;5023587;28;46284;-78
2022/06/09 07:00:00;;;;;;;;;1.00;1.00;;;;;26.26;38.33;100863.31;5023119;28;45482;-75
2022/06/09 07:02:26;;;;;;;;;2.25;1.00;;;;;26.93;36.56;100856.00;5024547;28;45419;-76
2022/06/09 07:04:51;;;;;;;;;2.25;1.00;;;;;27.09;36.30;100869.13;5021983;28;45376;-78
2022/06/09 07:07:17;;;;;;;;;3.25;1.00;;;;;26.44;36.78;100863.66;5023680;28;46021;-78
2022/06/09 07:09:42;;;;;;;;;1.75;1.00;;;;;26.45;37.44;100875.34;5015864;28;45519;-79
2022/06/09 07:12:09;;;;;;;;;0.00;0.00;;;;;26.57;36.34;100886.06;5020902;28;45393;-77
2022/06/09 07:14:36;;;;;;;;;3.00;1.00;;;;;26.23;36.90;100883.38;5031126;28;45441;-78
2022/06/09 07:17:02;;;;;;;;;2.00;2.00;;;;;25.86;37.73;100882.78;5026052;28;46399;-81
2022/06/09 07:19:29;;;;;;;;;1.00;1.00;;;;;25.55;37.54;100879.78;5018315;28;45387;-82
2022/06/09 07:21:54;;;;;;;;;1.50;1.50;;;;;25.38;37.90;100893.75;5029988;28;45373;-81
2022/06/09 07:24:20;;;;;;;;;2.50;2.50;;;;;25.77;37.89;100888.94;5028223;28;45505;-82
2022/06/09 07:26:45;;;;;;;;;2.00;1.00;;;;;25.62;37.60;100897.25;5026719;28;45446;-81
2022/06/09 07:29:11;;;;;;;;;1.00;1.00;;;;;26.18;37.26;100903.72;5016038;28;45403;-81
2022/06/09 07:31:38;;;;;;;;;3.00;1.00;;;;;26.53;37.12;100902.69;5016126;28;45575;-80
2022/06/09 07:34:03;;;;;;;;;0.50;0.50;;;;;26.58;36.12;100900.44;5023109;28;45387;-82
2022/06/09 07:36:29;;;;;;;;;2.00;1.50;;;;;26.47;35.94;100908.63;5022454;28;46322;-79
2022/06/09 07:38:54;;;;;;;;;2.75;1.00;;;;;26.06;36.38;100901.00;5027189;28;45447;-81
2022/06/09 07:41:20;;;;;;;;;1.00;1.00;;;;;25.80;37.83;100913.03;5032019;28;45506;-81
2022/06/09 07:43:48;;;;;;;;;2.75;1.75;;;;;25.45;37.44;100928.34;5031071;28;45463;-81
2022/06/09 07:46:15;;;;;;;;;3.25;1.00;;;;;25.11;38.45;100930.00;5037131;28;45557;-80
2022/06/09 07:48:41;;;;;;;;;2.25;1.00;;;;;24.70;38.89;100928.56;5027089;28;45597;-81
2022/06/09 07:51:07;;;;;;;;;3.00;2.00;;;;;24.13;40.08;100930.84;5015412;28;45384;-80
2022/06/09 07:53:32;;;;;;;;;1.50;1.25;;;;;23.71;40.25;100922.09;5026344;28;45692;-81
2022/06/09 07:55:58;;;;;;;;;1.00;1.00;;;;;23.36;41.18;100928.09;5017309;28;47517;-80
2022/06/09 07:58:26;;;;;;;;;2.00;1.00;;;;;23.34;41.26;100938.13;5021669;28;45364;-83
2022/06/09 08:00:53;;;;;;;;;0.00;0.00;;;;;24.21;40.79;100933.84;5004723;28;45501;-78
2022/06/09 08:03:22;;;;;;;;;1.00;0.25;;;;;25.30;39.52;100924.97;5015431;28;45317;-79
2022/06/09 08:05:49;;;;;;;;;3.50;1.75;;;;;26.23;37.25;100918.59;5015520;28;46742;-76
2022/06/09 08:08:14;;;;;;;;;2.50;1.00;;;;;26.96;34.92;100928.97;5031700;28;45453;-77
2022/06/09 08:10:41;;;;;;;;;1.00;1.00;;;;;27.59;34.95;100939.91;5018030;28;45518;-75
2022/06/09 08:13:07;;;;;;;;;2.25;2.00;;;;;28.37;33.87;100942.19;5029608;28;45416;-76
2022/06/09 08:15:34;;;;;;;;;4.50;1.00;;;;;29.15;32.56;100931.50;5023077;28;46088;-86
2022/06/09 08:18:02;;;;;;;;;1.75;1.00;;;;;28.79;31.57;100936.63;5028493;28;45379;-80
2022/06/09 08:20:31;;;;;;;;;1.00;1.00;;;;;28.35;32.49;100952.34;5015097;28;45430;-79
2022/06/09 08:23:02;;;;;;;;;1.00;1.00;;;;;28.05;33.19;100955.94;5006014;28;45601;-80
2022/06/09 08:25:28;;;;;;;;;3.25;2.00;;;;;27.86;33.69;100938.50;5010697;28;45530;-80
2022/06/09 08:27:53;;;;;;;;;3.50;1.75;;;;;27.95;33.11;100939.53;5013551;28;45424;-77
2022/06/09 08:30:19;;;;;;;;;2.00;2.00;;;;;28.59;32.91;100951.13;5014491;28;45355;-78
2022/06/09 08:32:45;;;;;;;;;3.00;1.25;;;;;29.08;32.90;100957.56;5017057;28;45406;-79
2022/06/09 08:35:15;;;;;;;;;2.00;1.50;;;;;29.32;31.40;100950.84;5021147;28;45525;-78
2022/06/09 08:37:40;;;;;;;;;1.00;1.00;;;;;29.63;30.44;100958.84;5026067;28;45535;-79
2022/06/09 08:40:07;;;;;;;;;1.00;1.00;;;;;30.02;30.37;100966.94;5019623;28;45528;-80
2022/06/09 08:42:42;;;;;;;;;1.00;1.00;;;;;30.00;29.83;100948.00;5021366;28;45462;-79
2022/06/09 08:45:19;;;;;;;;;4.25;1.25;;;;;30.26;30.16;100950.06;5015677;28;45513;-79
2022/06/09 08:47:53;;;;;;;;;1.00;1.00;;;;;30.60;28.91;100957.69;5016299;28;45484;-79
2022/06/09 08:50:35;;;;;;;;;2.75;1.25;;;;;30.75;29.70;100956.16;5024724;28;45477;-81
2022/06/09 08:53:10;;;;;;;;;2.00;0.00;;;;;30.29;29.38;100950.66;5025357;28;45692;-82
2022/06/09 08:55:49;;;;;;;;;2.00;1.00;;;;;30.36;28.62;100950.03;5011975;28;45485;-81
2022/06/09 08:58:28;;;;;;;;;0.75;0.75;;;;;30.55;29.02;100940.91;5015006;28;45553;-82
2022/06/09 09:01:17;;;;;;;;;2.00;1.00;;;;;30.96;29.25;100946.81;5011835;28;45591;-82
2022/06/09 09:03:56;;;;;;;;;1.00;1.00;;;;;31.32;27.98;100942.25;5034264;28;45322;-82
2022/06/09 09:06:53;;;;;;;;;0.00;0.00;;;;;31.86;26.58;100944.88;5020800;28;45387;-83
2022/06/09 09:09:27;;;;;;;;;0.25;0.00;;;;;32.06;26.60;100941.94;5016248;28;45486;-82
2022/06/09 09:12:26;;;;;;;;;6.50;2.00;;;;;32.12;26.80;100948.66;5016161;28;45524;-82
2022/06/09 09:15:16;;;;;;;;;2.00;1.50;;;;;31.80;27.53;100939.22;5016876;28;45570;-82
2022/06/09 09:18:09;;;;;;;;;0.50;0.50;;;;;31.42;27.83;100941.31;5015279;28;48165;-81
2022/06/09 09:20:39;;;;;;;;;0.50;0.50;;;;;31.80;27.37;100933.75;5014378;28;45622;-84
2022/06/09 09:23:12;;;;;;;;;0.00;0.00;;;;;31.33;27.39;100943.13;5014637;28;45454;-82
2022/06/09 09:25:59;;;;;;;;;3.00;0.00;;;;;30.46;28.64;100945.44;5016889;28;45581;-82
2022/06/09 09:28:32;;;;;;;;;0.00;0.00;;;;;29.52;29.75;100952.56;5020933;28;46390;-78
2022/06/09 09:31:34;;;;;;;;;1.00;1.00;;;;;29.07;29.67;100956.66;5024809;28;45527;-82
2022/06/09 09:34:03;;;;;;;;;1.25;0.25;;;;;28.68;31.38;100969.34;5033264;28;45371;-78
2022/06/09 09:36:38;;;;;;;;;0.00;0.00;;;;;28.79;30.89;100965.66;5023985;28;45435;-82
2022/06/09 09:39:16;;;;;;;;;1.00;1.00;;;;;28.63;29.60;100961.63;5016387;28;46157;-82
2022/06/09 09:41:42;;;;;;;;;1.25;1.00;;;;;28.67;31.00;100956.78;5020105;28;45556;-81
2022/06/09 09:44:27;;;;;;;;;1.50;0.50;;;;;28.55;30.80;100972.31;5022301;28;45474;-80
2022/06/09 09:46:59;;;;;;;;;0.00;0.00;;;;;28.86;31.50;100969.53;5017630;28;45571;-82
2022/06/09 09:49:48;;;;;;;;;1.00;0.00;;;;;29.59;30.16;100963.72;5019761;28;48051;-78
2022/06/09 09:52:34;;;;;;;;;0.00;0.00;;;;;30.12;28.17;100949.56;5013928;28;45496;-78
2022/06/09 09:55:00;;;;;;;;;1.00;1.00;;;;;30.63;27.57;100952.78;5017695;28;45505;-77
2022/06/09 09:57:28;;;;;;;;;0.00;0.00;;;;;31.07;27.92;100949.38;5031897;28;45390;-78
2022/06/09 09:59:56;;;;;;;;;0.00;0.00;;;;;31.28;27.57;100957.22;5026166;28;45544;-79
2022/06/09 10:12:04;;;;;;;;;1.00;0.00;;;;;29.15;29.10;100980.47;5016177;28;45957;-79
2022/06/09 10:14:20;;;;;;;;;0.00;0.00;;;;;28.18;30.88;100987.31;5009684;28;45488;-78
2022/06/09 10:16:51;;;;;;;;;0.00;0.00;;;;;27.63;31.29;100981.22;5011245;28;45384;-76
2022/06/09 10:19:20;;;;;;;;;1.00;0.00;;;;;27.19;31.04;100988.53;5013201;28;45540;-80
2022/06/09 10:22:01;;;;;;;;;2.00;0.00;;;;;26.63;32.29;100984.09;5011478;28;46591;-78
2022/06/09 10:25:11;;;;;;;;;0.00;0.00;;;;;26.36;32.67;100999.75;5022539;28;45501;-80
2022/06/09 10:27:38;;;;;;;;;1.00;0.00;;;;;26.00;32.80;100998.13;5016936;28;45482;-80
2022/06/09 10:30:04;;;;;;;;;0.75;0.75;;;;;25.80;34.74;101002.34;5024701;28;45372;-79
2022/06/09 10:32:47;;;;;;;;;4.00;1.00;;;;;25.45;33.98;100992.41;5018319;28;46225;-79
2022/06/09 10:35:44;;;;;;;;;1.00;1.00;;;;;25.15;34.71;101004.53;5014386;28;45544;-80
2022/06/09 10:38:26;;;;;;;;;1.00;1.00;;;;;25.03;35.39;100997.34;5012413;28;45458;-80
2022/06/09 10:40:56;;;;;;;;;1.50;1.00;;;;;25.11;35.07;100994.91;5016894;28;45359;-79
2022/06/09 10:43:38;;;;;;;;;0.00;0.00;;;;;25.38;34.58;101005.53;5018323;28;46498;-79
2022/06/09 10:46:09;;;;;;;;;0.00;0.00;;;;;25.57;34.16;101001.41;5021957;28;45596;-78
2022/06/09 10:55:15;;;;;;;;;0.25;0.25;;;;;25.96;33.80;100994.75;5015885;28;45685;-78
2022/06/09 10:58:03;;;;;;;;;0.00;0.00;;;;;25.75;33.13;101004.53;5022368;28;45414;-79
2022/06/09 11:00:36;;;;;;;;;2.00;1.00;;;;;25.68;33.48;101013.13;5034442;28;45440;-78
2022/06/09 11:03:11;;;;;;;;;0.00;0.00;;;;;25.86;32.83;101010.00;5013823;28;45460;-77
2022/06/09 11:05:53;;;;;;;;;2.00;1.00;;;;;26.20;33.05;101010.06;5019000;28;45737;-79
2022/06/09 11:08:30;;;;;;;;;0.00;0.00;;;;;26.71;32.47;101004.19;5013296;28;45525;-80
2022/06/09 11:11:24;;;;;;;;;1.25;1.25;;;;;27.46;31.92;101005.22;5021898;28;45475;-80
2022/06/09 11:13:52;;;;;;;;;1.75;1.00;;;;;27.79;31.12;101013.34;5007053;28;45578;-81
2022/06/09 11:16:30;;;;;;;;;1.50;0.75;;;;;27.66;30.63;101016.25;5011144;28;47531;-79
2022/06/09 11:19:14;;;;;;;;;1.00;0.00;;;;;27.79;31.73;101016.06;5022844;28;45407;-77
2022/06/09 11:22:01;;;;;;;;;0.00;0.00;;;;;28.05;31.15;101011.13;5026650;28;45504;-87
2022/06/09 11:24:34;;;;;;;;;0.00;0.00;;;;;28.22;29.87;101006.91;5014500;28;45566;-78
2022/06/09 11:27:25;;;;;;;;;0.00;0.00;;;;;28.18;29.65;101011.75;5012366;28;46297;-78
2022/06/09 11:29:58;;;;;;;;;1.00;1.00;;;;;28.16;29.16;101013.72;5018460;28;45710;-79
2022/06/09 11:33:08;;;;;;;;;1.00;0.00;;;;;28.23;29.64;101015.94;5015496;28;45481;-77
2022/06/09 11:36:02;;;;;;;;;0.50;0.00;;;;;28.38;29.98;101017.31;5010402;28;45581;-78
2022/06/09 11:38:58;;;;;;;;;0.00;0.00;;;;;28.48;29.42;101022.75;5023134;28;46891;-78
2022/06/09 11:41:23;;;;;;;;;1.25;1.00;;;;;28.53;29.78;101018.66;5025031;28;45533;-79
2022/06/09 11:44:13;;;;;;;;;1.25;1.25;;;;;28.66;29.23;101010.28;5028712;28;45432;-78
2022/06/09 11:46:41;;;;;;;;;2.25;0.75;;;;;28.80;27.70;101013.59;5010183;28;45466;-79
2022/06/09 11:49:17;;;;;;;;;1.00;1.00;;;;;28.74;28.40;101023.16;5013417;28;45380;-79
2022/06/09 11:51:43;;;;;;;;;1.75;0.00;;;;;28.82;28.72;101026.06;5012668;28;45356;-78
2022/06/09 11:54:37;;;;;;;;;0.25;0.25;;;;;28.95;28.35;101017.66;5022146;28;45367;-79
2022/06/09 11:57:36;;;;;;;;;1.00;0.00;;;;;28.99;28.70;101010.94;5008656;28;45773;-78
2022/06/09 12:00:21;;;;;;;;;0.50;0.50;;;;;28.88;28.88;101013.78;5019198;28;45601;-78
2022/06/09 12:02:56;;;;;;;;;0.00;0.00;;;;;29.04;28.83;101013.22;5018979;28;45391;-79
2022/06/09 12:05:28;;;;;;;;;1.00;1.00;;;;;29.19;27.97;101019.97;5013027;28;45482;-78
2022/06/09 12:08:12;;;;;;;;;0.75;0.75;;;;;29.23;27.25;101024.19;5013897;28;45395;-77
2022/06/09 12:10:56;;;;;;;;;1.00;0.25;;;;;28.89;27.34;101020.94;5024780;28;45461;-78